createdAt,value
2023-04-17T00:01:39.392Z,10.55
2023-04-17T00:04:11.437Z,10.49
2023-04-17T00:06:40.298Z,10.61
2023-04-17T00:09:08.183Z,10.55
2023-04-17T00:11:36.160Z,10.43
2023-04-17T00:14:05.834Z,10.45
2023-04-17T00:16:33.945Z,10.55
2023-04-17T00:19:01.917Z,10.44
2023-04-17T00:21:32.112Z,10.46
2023-04-17T00:24:00.157Z,10.48
2023-04-17T00:26:28.093Z,10.57
2023-04-17T00:28:56.340Z,10.62
2023-04-17T00:31:25.755Z,10.75
2023-04-17T00:33:53.699Z,10.70
2023-04-17T00:36:21.651Z,10.67
2023-04-17T00:38:49.566Z,10.77
2023-04-17T00:41:17.979Z,10.75
2023-04-17T00:43:45.887Z,10.66
2023-04-17T00:46:14.250Z,10.58
2023-04-17T00:48:44.243Z,10.49
2023-04-17T00:51:12.622Z,10.39
2023-04-17T00:53:41.026Z,10.34
2023-04-17T00:56:09.539Z,10.35
2023-04-17T00:58:39.262Z,10.49
2023-04-17T01:01:07.880Z,10.68
2023-04-17T01:03:36.187Z,10.60
2023-04-17T01:06:05.958Z,10.49
2023-04-17T01:08:41.322Z,10.52
2023-04-17T01:11:09.314Z,10.29
2023-04-17T01:13:45.629Z,10.31
2023-04-17T01:16:13.618Z,10.54
2023-04-17T01:18:41.662Z,10.47
2023-04-17T01:21:11.259Z,10.48
2023-04-17T01:23:46.056Z,10.30
2023-04-17T01:26:17.881Z,10.24
2023-04-17T01:28:50.688Z,10.30
2023-04-17T01:31:18.686Z,10.28
2023-04-17T01:33:46.658Z,10.25
2023-04-17T01:36:14.856Z,10.35
2023-04-17T01:38:43.072Z,10.26
2023-04-17T01:41:11.345Z,10.28
2023-04-17T01:43:42.258Z,10.38
2023-04-17T01:46:10.635Z,10.31
2023-04-17T01:48:38.936Z,10.34
2023-04-17T01:51:07.557Z,10.44
2023-04-17T01:53:35.642Z,10.36
2023-04-17T01:56:03.655Z,10.44
2023-04-17T01:58:32.214Z,10.33
2023-04-17T02:01:01.577Z,10.49
2023-04-17T02:03:29.692Z,10.40
2023-04-17T02:05:57.782Z,10.35
2023-04-17T02:08:26.098Z,10.42
2023-04-17T02:10:54.380Z,10.37
2023-04-17T02:13:22.292Z,10.41
2023-04-17T02:15:50.220Z,10.38
2023-04-17T02:18:19.583Z,10.45
2023-04-17T02:20:47.497Z,10.43
2023-04-17T02:23:15.445Z,10.59
2023-04-17T02:25:43.348Z,10.43
2023-04-17T02:28:11.477Z,10.34
2023-04-17T02:30:39.411Z,10.42
2023-04-17T02:33:07.477Z,10.48
2023-04-17T02:35:36.834Z,10.54
2023-04-17T02:38:04.764Z,10.55
2023-04-17T02:40:32.677Z,10.36
2023-04-17T02:43:00.959Z,10.33
2023-04-17T02:45:28.888Z,10.36
2023-04-17T02:47:56.867Z,10.38
2023-04-17T02:50:24.817Z,10.47
2023-04-17T02:52:54.754Z,10.38
2023-04-17T02:55:23.001Z,10.32
2023-04-17T02:57:50.927Z,10.40
2023-04-17T03:00:19.114Z,10.36
2023-04-17T03:02:47.221Z,10.32
2023-04-17T03:05:16.120Z,10.26
2023-04-17T03:07:44.108Z,10.23
2023-04-17T03:10:13.556Z,10.15
2023-04-17T03:12:41.446Z,10.14
2023-04-17T03:15:10.252Z,10.12
2023-04-17T03:17:38.318Z,10.27
2023-04-17T03:20:08.070Z,10.29
2023-04-17T03:22:36.673Z,10.35
2023-04-17T03:25:04.945Z,10.20
2023-04-17T03:27:34.226Z,10.28
2023-04-17T03:30:02.257Z,10.17
2023-04-17T03:32:30.242Z,10.18
2023-04-17T03:34:58.184Z,10.31
2023-04-17T03:37:26.064Z,10.40
2023-04-17T03:39:55.634Z,10.46
2023-04-17T03:42:23.575Z,10.48
2023-04-17T03:44:53.039Z,10.39
2023-04-17T03:47:20.972Z,10.23
2023-04-17T03:49:48.936Z,10.19
2023-04-17T03:52:17.170Z,10.32
2023-04-17T03:54:45.072Z,10.27
2023-04-17T03:57:13.013Z,10.25
2023-04-17T03:59:40.964Z,10.09
2023-04-17T04:02:10.427Z,10.13
2023-04-17T04:04:38.652Z,10.08
2023-04-17T04:07:06.798Z,10.15
2023-04-17T04:09:34.704Z,10.10
2023-04-17T04:12:03.161Z,10.09
2023-04-17T04:14:31.089Z,9.95
2023-04-17T04:16:59.178Z,10.04
2023-04-17T04:19:28.467Z,10.00
2023-04-17T04:21:57.720Z,10.13
2023-04-17T04:24:25.733Z,10.14
2023-04-17T04:26:53.789Z,10.10
2023-04-17T04:29:25.671Z,10.09
2023-04-17T04:31:53.817Z,10.08
2023-04-17T04:34:21.939Z,10.24
2023-04-17T04:36:51.251Z,10.21
2023-04-17T04:39:21.892Z,10.25
2023-04-17T04:41:50.808Z,10.32
2023-04-17T04:44:18.813Z,10.18
2023-04-17T04:46:46.985Z,10.32
2023-04-17T04:49:15.087Z,10.31
2023-04-17T04:51:43.119Z,10.36
2023-04-17T04:54:12.596Z,10.26
2023-04-17T04:56:40.530Z,10.34
2023-04-17T04:59:08.427Z,10.57
2023-04-17T05:01:36.390Z,10.53
2023-04-17T05:04:04.525Z,10.48
2023-04-17T05:06:32.509Z,10.52
2023-04-17T05:09:00.892Z,10.56
2023-04-17T05:11:30.794Z,10.53
2023-04-17T05:13:58.777Z,10.44
2023-04-17T05:16:26.759Z,10.43
2023-04-17T05:18:54.915Z,10.43
2023-04-17T05:21:22.856Z,10.49
2023-04-17T05:23:50.938Z,10.59
2023-04-17T05:26:21.994Z,10.50
2023-04-17T05:28:51.315Z,10.49
2023-04-17T05:31:19.420Z,10.56
2023-04-17T05:33:47.449Z,10.34
2023-04-17T05:36:15.418Z,10.64
2023-04-17T05:38:45.957Z,10.54
2023-04-17T05:41:14.181Z,10.60
2023-04-17T05:43:42.849Z,10.41
2023-04-17T05:46:12.323Z,10.72
2023-04-17T05:48:40.577Z,10.52
2023-04-17T05:51:08.555Z,10.54
2023-04-17T05:53:37.334Z,10.58
2023-04-17T05:56:05.779Z,10.62
2023-04-17T05:58:36.222Z,10.69
2023-04-17T06:01:06.529Z,10.67
2023-04-17T06:03:36.080Z,10.52
2023-04-17T06:06:04.531Z,10.54
2023-04-17T06:08:32.506Z,10.64
2023-04-17T06:11:00.473Z,10.59
2023-04-17T06:13:28.449Z,10.70
2023-04-17T06:15:56.391Z,10.77
2023-04-17T06:18:24.411Z,10.82
2023-04-17T06:20:53.797Z,10.90
2023-04-17T06:23:21.776Z,10.79
2023-04-17T06:25:49.786Z,10.84
2023-04-17T06:28:17.682Z,10.83
2023-04-17T06:30:45.646Z,10.86
2023-04-17T06:33:13.644Z,10.97
2023-04-17T06:35:41.823Z,11.16
2023-04-17T06:38:11.335Z,10.76
2023-04-17T06:40:39.987Z,11.13
2023-04-17T06:43:08.252Z,10.99
2023-04-17T06:45:36.341Z,11.28
2023-04-17T06:48:04.486Z,11.30
2023-04-17T06:50:32.959Z,11.38
2023-04-17T06:53:01.125Z,11.46
2023-04-17T06:55:30.548Z,11.42
2023-04-17T06:57:58.866Z,11.29
2023-04-17T07:00:27.077Z,11.08
2023-04-17T07:02:55.170Z,11.51
2023-04-17T07:05:23.142Z,11.37
2023-04-17T07:07:51.059Z,11.51
2023-04-17T07:10:19.579Z,11.09
2023-04-17T07:12:48.954Z,11.16
2023-04-17T07:15:17.286Z,11.25
2023-04-17T07:17:45.309Z,11.22
2023-04-17T07:20:13.781Z,11.17
2023-04-17T07:22:41.776Z,11.26
2023-04-17T07:25:09.889Z,11.44
2023-04-17T07:27:38.828Z,11.52
2023-04-17T07:30:10.122Z,11.46
2023-04-17T07:32:38.104Z,11.41
2023-04-17T07:35:06.896Z,11.54
2023-04-17T07:37:37.063Z,11.56
2023-04-17T07:40:10.547Z,11.57
2023-04-17T07:42:38.554Z,11.65
2023-04-17T07:45:08.967Z,11.45
2023-04-17T07:47:37.047Z,11.51
2023-04-17T07:50:05.402Z,11.60
2023-04-17T07:52:33.365Z,11.47
2023-04-17T07:55:01.271Z,11.36
2023-04-17T07:57:29.231Z,11.55
2023-04-17T07:59:57.259Z,11.54
2023-04-17T08:02:26.747Z,11.52
2023-04-17T08:04:55.538Z,11.40
2023-04-17T08:07:24.091Z,11.45
2023-04-17T08:09:52.181Z,11.61
2023-04-17T08:12:20.127Z,11.53
2023-04-17T08:14:48.048Z,11.77
2023-04-17T08:17:20.184Z,11.63
2023-04-17T08:19:50.380Z,11.54
2023-04-17T08:22:19.710Z,11.58
2023-04-17T08:24:47.939Z,11.50
2023-04-17T08:27:16.076Z,11.63
2023-04-17T08:29:44.621Z,11.84
2023-04-17T08:32:14.657Z,11.64
2023-04-17T08:34:43.646Z,11.44
2023-04-17T08:37:13.008Z,11.38
2023-04-17T08:39:41.006Z,11.59
2023-04-17T08:42:13.288Z,11.59
2023-04-17T08:44:45.770Z,11.51
2023-04-17T08:47:14.189Z,11.65
2023-04-17T08:49:43.950Z,11.70
2023-04-17T08:52:14.528Z,11.73
2023-04-17T08:54:42.474Z,11.70
2023-04-17T08:57:10.484Z,11.81
2023-04-17T08:59:38.792Z,11.66
2023-04-17T09:02:08.207Z,11.62
2023-04-17T09:04:38.403Z,11.79
2023-04-17T09:07:06.745Z,11.81
2023-04-17T09:09:52.823Z,11.71
2023-04-17T09:12:21.587Z,11.85
2023-04-17T09:14:49.590Z,11.87
2023-04-17T09:17:19.035Z,11.81
2023-04-17T09:20:07.559Z,12.05
2023-04-17T09:22:36.690Z,12.04
2023-04-17T09:25:15.966Z,11.92
2023-04-17T09:27:43.865Z,12.09
2023-04-17T09:30:12.208Z,12.04
2023-04-17T09:32:40.571Z,12.31
2023-04-17T09:35:09.043Z,12.32
2023-04-17T09:37:50.662Z,12.46
2023-04-17T09:40:21.689Z,12.15
2023-04-17T09:42:57.809Z,12.16
2023-04-17T09:45:26.996Z,12.04
2023-04-17T09:47:56.113Z,11.87
2023-04-17T09:50:25.897Z,12.19
2023-04-17T09:52:55.256Z,12.06
2023-04-17T09:55:26.786Z,11.98
2023-04-17T09:57:55.977Z,11.98
2023-04-17T10:00:27.076Z,11.88
2023-04-17T10:02:56.302Z,11.62
2023-04-17T10:05:25.928Z,11.70
2023-04-17T10:07:54.228Z,11.65
2023-04-17T10:10:30.333Z,11.83
2023-04-17T10:13:01.263Z,11.95
2023-04-17T10:15:30.522Z,11.95
2023-04-17T10:18:19.795Z,11.97
2023-04-17T10:20:48.619Z,11.83
2023-04-17T10:23:31.621Z,12.05
2023-04-17T10:26:42.015Z,11.94
2023-04-17T10:29:12.812Z,11.95
2023-04-17T10:32:25.960Z,11.90
2023-04-17T10:34:55.318Z,12.13
2023-04-17T10:37:25.426Z,12.24
2023-04-17T10:39:56.673Z,11.96
2023-04-17T10:42:25.896Z,12.08
2023-04-17T10:44:59.896Z,12.00
2023-04-17T10:47:32.702Z,11.93
2023-04-17T10:50:02.420Z,11.82
2023-04-17T10:52:39.898Z,11.87
2023-04-17T10:55:09.744Z,11.72
2023-04-17T10:57:56.956Z,11.87
2023-04-17T11:00:35.156Z,11.85
2023-04-17T11:03:04.794Z,11.97
2023-04-17T11:05:33.306Z,11.91
2023-04-17T11:08:01.392Z,11.94
2023-04-17T11:10:29.523Z,11.74
2023-04-17T11:12:57.532Z,11.85
2023-04-17T11:15:29.420Z,12.17
2023-04-17T11:18:00.370Z,12.17
2023-04-17T11:20:31.248Z,12.09
2023-04-17T11:23:02.276Z,12.15
2023-04-17T11:25:33.873Z,12.45
2023-04-17T11:28:03.527Z,12.32
2023-04-17T11:30:33.498Z,11.97
2023-04-17T11:33:04.501Z,12.27
2023-04-17T11:35:34.118Z,12.24
2023-04-17T11:38:17.898Z,12.16
2023-04-17T11:40:52.264Z,12.42
2023-04-17T11:43:21.197Z,12.16
2023-04-17T11:45:52.085Z,12.30
2023-04-17T11:48:24.115Z,12.15
2023-04-17T11:50:56.531Z,12.17
2023-04-17T11:53:24.849Z,12.04
2023-04-17T11:56:18.188Z,12.10
2023-04-17T11:58:50.957Z,11.77
2023-04-17T12:01:20.169Z,11.88
2023-04-17T12:03:49.898Z,11.75
2023-04-17T12:06:18.359Z,11.78
2023-04-17T12:08:50.234Z,11.64
2023-04-17T12:11:24.067Z,11.70
2023-04-17T12:13:52.101Z,11.34
2023-04-17T12:16:20.351Z,11.33
2023-04-17T12:18:49.767Z,11.48
2023-04-17T12:21:18.082Z,11.26
2023-04-17T12:23:45.995Z,11.32
2023-04-17T12:26:14.390Z,11.32
2023-04-17T12:28:42.366Z,11.25
2023-04-17T12:31:10.512Z,11.21
2023-04-17T12:33:38.633Z,11.24
2023-04-17T12:36:09.011Z,11.25
2023-04-17T12:38:37.197Z,11.25
2023-04-17T12:41:05.246Z,11.26
2023-04-17T12:43:33.703Z,11.27
2023-04-17T12:46:02.327Z,11.31
2023-04-17T12:48:32.718Z,11.19
2023-04-17T12:51:01.110Z,11.20
2023-04-17T12:53:30.620Z,11.15
2023-04-17T12:55:58.767Z,11.27
2023-04-17T12:58:26.961Z,11.15
2023-04-17T13:00:55.004Z,11.29
2023-04-17T13:03:23.172Z,11.46
2023-04-17T13:05:53.279Z,11.48
2023-04-17T13:08:21.772Z,11.14
2023-04-17T13:10:51.109Z,11.29
2023-04-17T13:13:19.054Z,11.35
2023-04-17T13:15:47.570Z,11.33
2023-04-17T13:18:15.882Z,11.06
2023-04-17T13:20:43.910Z,10.97
2023-04-17T13:23:12.094Z,10.90
2023-04-17T13:25:40.041Z,10.90
2023-04-17T13:28:09.427Z,10.93
2023-04-17T13:30:38.037Z,11.02
2023-04-17T13:33:06.234Z,10.98
2023-04-17T13:35:34.168Z,10.94
2023-04-17T13:38:03.350Z,10.86
2023-04-17T13:40:31.662Z,10.90
2023-04-17T13:43:00.447Z,10.87
2023-04-17T13:45:29.872Z,10.77
2023-04-17T13:47:57.889Z,10.88
2023-04-17T13:50:25.830Z,10.93
2023-04-17T13:52:53.840Z,11.04
2023-04-17T13:55:21.826Z,11.07
2023-04-17T13:57:51.118Z,11.09
2023-04-17T14:00:20.933Z,11.06
2023-04-17T14:02:50.487Z,10.94
2023-04-17T14:05:18.589Z,10.98
2023-04-17T14:07:46.535Z,10.84
2023-04-17T14:10:15.050Z,10.88
2023-04-17T14:12:43.950Z,10.80
2023-04-17T14:15:13.229Z,10.94
2023-04-17T14:17:43.368Z,10.88
2023-04-17T14:20:15.211Z,10.84
2023-04-17T14:22:43.689Z,10.84
2023-04-17T14:25:11.834Z,10.92
2023-04-17T14:27:39.963Z,11.01
2023-04-17T14:30:10.127Z,11.12
2023-04-17T14:32:38.594Z,11.05
2023-04-17T14:35:07.556Z,11.08
2023-04-17T14:37:37.021Z,11.28
2023-04-17T14:40:05.830Z,11.07
2023-04-17T14:42:40.667Z,11.02
2023-04-17T14:45:19.100Z,11.14
2023-04-17T14:47:47.080Z,11.17
2023-04-17T14:50:15.074Z,11.17
2023-04-17T14:52:44.390Z,10.97
2023-04-17T14:55:13.349Z,10.97
2023-04-17T14:57:41.438Z,11.10
2023-04-17T15:00:10.304Z,11.26
2023-04-17T15:02:39.513Z,11.25
2023-04-17T15:05:08.652Z,11.17
2023-04-17T15:07:37.079Z,11.30
2023-04-17T15:10:07.286Z,11.25
2023-04-17T15:12:35.223Z,11.28
2023-04-17T15:15:03.455Z,11.11
2023-04-17T15:17:31.488Z,11.18
2023-04-17T15:20:00.806Z,11.19
2023-04-17T15:22:28.830Z,11.08
2023-04-17T15:24:56.756Z,11.02
2023-04-17T15:27:26.139Z,10.96
2023-04-17T15:29:54.088Z,10.99
2023-04-17T15:32:22.096Z,10.98
2023-04-17T15:34:50.075Z,10.82
2023-04-17T15:37:17.999Z,10.88
2023-04-17T15:39:46.199Z,11.01
2023-04-17T15:42:14.130Z,11.02
2023-04-17T15:44:43.437Z,10.85
2023-04-17T15:47:11.400Z,10.69
2023-04-17T15:49:39.323Z,10.80
2023-04-17T15:52:07.737Z,10.92
2023-04-17T15:54:35.800Z,10.75
2023-04-17T15:57:03.749Z,10.75
2023-04-17T15:59:33.090Z,10.47
2023-04-17T16:02:02.851Z,10.65
2023-04-17T16:04:31.005Z,10.66
2023-04-17T16:06:59.137Z,10.86
2023-04-17T16:09:27.549Z,10.75
2023-04-17T16:11:56.651Z,10.85
2023-04-17T16:14:24.653Z,10.60
2023-04-17T16:16:52.930Z,10.52
2023-04-17T16:19:22.228Z,10.60
2023-04-17T16:21:50.215Z,10.53
2023-04-17T16:24:18.159Z,10.55
2023-04-17T16:26:46.060Z,10.52
2023-04-17T16:29:14.208Z,10.50
2023-04-17T16:31:42.446Z,10.47
2023-04-17T16:34:12.718Z,10.42
2023-04-17T16:36:45.153Z,10.37
2023-04-17T16:39:13.914Z,10.46
2023-04-17T16:41:42.383Z,10.31
2023-04-17T16:44:10.463Z,10.25
2023-04-17T16:49:11.602Z,10.33
2023-04-17T16:51:41.226Z,10.21
2023-04-17T16:54:09.297Z,10.26
2023-04-17T16:56:37.363Z,10.34
2023-04-17T16:59:05.833Z,10.24
2023-04-17T17:01:33.905Z,10.22
2023-04-17T17:04:01.993Z,10.27
2023-04-17T17:06:30.236Z,10.13
2023-04-17T17:08:59.781Z,10.23
2023-04-17T17:11:27.865Z,10.02
2023-04-17T17:13:56.334Z,10.08
2023-04-17T17:16:24.283Z,10.18
2023-04-17T17:18:52.233Z,10.14
2023-04-17T17:21:20.219Z,10.24
2023-04-17T17:23:49.222Z,10.30
2023-04-17T17:26:18.535Z,10.22
2023-04-17T17:28:51.042Z,10.13
2023-04-17T17:31:19.495Z,10.07
2023-04-17T17:33:50.156Z,10.20
2023-04-17T17:36:18.471Z,10.21
2023-04-17T17:38:46.515Z,10.05
2023-04-17T17:41:14.426Z,10.07
2023-04-17T17:43:43.748Z,10.09
2023-04-17T17:46:11.657Z,10.23
2023-04-17T17:48:39.691Z,10.07
2023-04-17T17:51:07.648Z,10.03
2023-04-17T17:53:35.574Z,10.10
2023-04-17T17:56:03.759Z,10.19
2023-04-17T17:58:31.703Z,10.24
2023-04-17T18:01:01.060Z,10.17
2023-04-17T18:03:29.119Z,10.03
2023-04-17T18:05:57.087Z,10.17
2023-04-17T18:08:24.983Z,10.07
2023-04-17T18:10:52.947Z,10.20
2023-04-17T18:13:20.890Z,10.10
2023-04-17T18:15:48.799Z,10.18
2023-04-17T18:18:18.162Z,10.09
2023-04-17T18:20:46.268Z,10.02
2023-04-17T18:23:14.394Z,10.16
2023-04-17T18:25:42.325Z,10.06
2023-04-17T18:28:10.233Z,9.95
2023-04-17T18:30:38.268Z,10.02
2023-04-17T18:33:06.822Z,10.05
2023-04-17T18:35:36.429Z,10.05
2023-04-17T18:38:04.830Z,10.01
2023-04-17T18:40:33.428Z,9.89
2023-04-17T18:43:01.932Z,9.84
2023-04-17T18:45:31.505Z,9.84
2023-04-17T18:47:59.743Z,9.95
2023-04-17T18:50:27.994Z,9.86
2023-04-17T18:52:57.840Z,9.87
2023-04-17T18:55:25.835Z,9.85
2023-04-17T18:57:53.977Z,9.50
2023-04-17T19:00:22.031Z,9.85
2023-04-17T19:02:50.106Z,9.88
2023-04-17T19:05:20.451Z,9.84
2023-04-17T19:07:48.822Z,9.77
2023-04-17T19:10:18.467Z,9.69
2023-04-17T19:12:46.868Z,9.65
2023-04-17T19:15:17.559Z,9.74
2023-04-17T19:17:45.680Z,9.71
2023-04-17T19:20:14.690Z,9.62
2023-04-17T19:22:42.687Z,9.77
2023-04-17T19:25:11.194Z,9.72
2023-04-17T19:27:40.605Z,9.68
2023-04-17T19:30:09.923Z,9.70
2023-04-17T19:32:38.015Z,9.65
2023-04-17T19:35:07.418Z,9.61
2023-04-17T19:37:35.498Z,9.65
2023-04-17T19:40:08.552Z,9.73
2023-04-17T19:42:43.930Z,9.62
2023-04-17T19:45:13.142Z,9.70
2023-04-17T19:47:41.172Z,9.71
2023-04-17T19:50:10.744Z,9.71
2023-04-17T19:52:40.207Z,9.67
2023-04-17T19:55:09.411Z,9.50
2023-04-17T19:57:39.171Z,9.77
2023-04-17T20:00:10.920Z,9.49
2023-04-17T20:02:39.607Z,9.60
2023-04-17T20:05:08.600Z,9.53
2023-04-17T20:07:37.488Z,9.49
2023-04-17T20:10:06.118Z,9.38
2023-04-17T20:12:34.456Z,9.41
2023-04-17T20:15:02.522Z,9.49
2023-04-17T20:17:31.938Z,9.18
2023-04-17T20:19:59.955Z,9.48
2023-04-17T20:22:27.918Z,9.57
2023-04-17T20:24:56.023Z,9.43
2023-04-17T20:27:24.082Z,9.33
2023-04-17T20:29:52.210Z,9.42
2023-04-17T20:32:20.501Z,9.36
2023-04-17T20:34:50.014Z,9.43
2023-04-17T20:37:18.175Z,9.22
2023-04-17T20:39:46.165Z,9.21
2023-04-17T20:42:14.224Z,9.27
2023-04-17T20:44:42.628Z,9.30
2023-04-17T20:47:10.716Z,9.36
2023-04-17T20:49:38.792Z,9.27
2023-04-17T20:52:08.298Z,9.32
2023-04-17T20:54:36.356Z,9.24
2023-04-17T20:57:04.638Z,9.27
2023-04-17T20:59:33.490Z,9.13
2023-04-17T21:02:02.053Z,9.16
2023-04-17T21:04:30.111Z,9.10
2023-04-17T21:06:58.111Z,9.13
2023-04-17T21:09:28.027Z,9.06
2023-04-17T21:11:56.422Z,9.20
2023-04-17T21:14:24.341Z,9.16
2023-04-17T21:16:54.927Z,9.17
2023-04-17T21:19:24.302Z,9.08
2023-04-17T21:21:53.556Z,9.04
2023-04-17T21:24:21.579Z,9.11
2023-04-17T21:26:50.894Z,8.99
2023-04-17T21:29:18.788Z,9.02
2023-04-17T21:31:47.002Z,8.91
2023-04-17T21:34:15.198Z,8.80
2023-04-17T21:36:43.223Z,8.87
2023-04-17T21:39:11.379Z,8.65
2023-04-17T21:41:39.410Z,8.66
2023-04-17T21:44:10.634Z,8.83
2023-04-17T21:46:39.610Z,8.86
2023-04-17T21:49:07.607Z,9.08
2023-04-17T21:51:35.973Z,9.14
2023-04-17T21:54:04.275Z,8.84
2023-04-17T21:56:32.613Z,8.71
2023-04-17T21:59:00.660Z,8.85
2023-04-17T22:01:30.443Z,8.78
2023-04-17T22:03:58.503Z,8.68
2023-04-17T22:06:26.593Z,8.73
2023-04-17T22:08:54.571Z,8.87
2023-04-17T22:11:23.118Z,8.79
2023-04-17T22:13:51.021Z,8.71
2023-04-17T22:16:19.067Z,8.78
2023-04-17T22:18:48.558Z,8.70
2023-04-17T22:21:16.465Z,8.72
2023-04-17T22:23:44.354Z,8.68
2023-04-17T22:26:12.469Z,8.63
2023-04-17T22:28:40.476Z,8.57
2023-04-17T22:31:08.528Z,8.65
2023-04-17T22:33:36.901Z,8.56
2023-04-17T22:36:06.798Z,8.54
2023-04-17T22:38:34.798Z,8.59
2023-04-17T22:41:02.771Z,8.72
2023-04-17T22:43:30.717Z,8.51
2023-04-17T22:45:58.754Z,8.59
2023-04-17T22:48:27.932Z,8.43
2023-04-17T22:50:56.809Z,8.37
2023-04-17T22:53:26.330Z,8.43
2023-04-17T22:56:03.927Z,8.42
2023-04-17T22:58:32.634Z,8.39
2023-04-17T23:01:00.656Z,8.35
2023-04-17T23:03:28.699Z,8.48
2023-04-17T23:05:56.955Z,8.28
2023-04-17T23:08:26.308Z,8.32
2023-04-17T23:11:00.719Z,8.42
2023-04-17T23:13:29.193Z,8.19
2023-04-17T23:15:57.294Z,8.24
2023-04-17T23:18:26.462Z,8.22
2023-04-17T23:20:54.375Z,8.24
2023-04-17T23:23:22.315Z,8.15
2023-04-17T23:25:52.170Z,8.29
2023-04-17T23:28:20.094Z,8.39
2023-04-17T23:30:48.015Z,8.27
2023-04-17T23:33:15.941Z,8.16
2023-04-17T23:35:43.838Z,8.28
2023-04-17T23:38:11.751Z,8.20
2023-04-17T23:40:39.717Z,8.26
2023-04-17T23:43:09.012Z,8.25
2023-04-17T23:45:36.906Z,8.28
2023-04-17T23:48:05.018Z,8.31
2023-04-17T23:50:33.043Z,8.33
2023-04-17T23:53:01.020Z,8.49
2023-04-17T23:55:29.009Z,8.37
2023-04-17T23:57:58.440Z,8.47
